createdAt,value
2018-03-01T00:00:29.315Z,-9.19
2018-03-01T00:02:58.679Z,-9.19
2018-03-01T00:05:29.118Z,-9.10
2018-03-01T00:07:58.993Z,-9.19
2018-03-01T00:10:29.766Z,-9.21
2018-03-01T00:12:59.064Z,-9.20
2018-03-01T00:15:28.531Z,-9.11
2018-03-01T00:17:57.824Z,-9.12
2018-03-01T00:20:27.083Z,-9.12
2018-03-01T00:22:56.598Z,-9.04
2018-03-01T00:25:25.783Z,-8.94
2018-03-01T00:27:54.938Z,-9.02
2018-03-01T00:30:26.663Z,-9.08
2018-03-01T00:32:57.426Z,-9.13
2018-03-01T00:35:26.561Z,-9.31
2018-03-01T00:37:55.995Z,-9.33
2018-03-01T00:40:25.365Z,-9.41
2018-03-01T00:42:54.468Z,-9.55
2018-03-01T00:45:25.996Z,-9.65
2018-03-01T00:47:56.628Z,-9.72
2018-03-01T00:50:26.545Z,-9.84
2018-03-01T00:52:58.551Z,-9.91
2018-03-01T00:55:34.568Z,-9.97
2018-03-01T00:58:05.916Z,-10.02
2018-03-01T01:00:39.530Z,-10.00
2018-03-01T01:03:08.704Z,-9.96
2018-03-01T01:05:38.138Z,-10.04
2018-03-01T01:08:09.205Z,-10.03
2018-03-01T01:10:38.141Z,-10.15
2018-03-01T01:13:09.852Z,-10.08
2018-03-01T01:15:39.122Z,-10.03
2018-03-01T01:18:08.227Z,-10.01
2018-03-01T01:20:39.286Z,-10.01
2018-03-01T01:23:10.190Z,-10.06
2018-03-01T01:25:40.181Z,-10.13
2018-03-01T01:28:11.776Z,-10.16
2018-03-01T01:30:41.916Z,-10.19
2018-03-01T01:33:11.929Z,-10.24
2018-03-01T01:38:16.244Z,-10.27
2018-03-01T01:40:46.431Z,-10.24
2018-03-01T01:43:16.286Z,-10.30
2018-03-01T01:45:45.480Z,-10.35
2018-03-01T01:48:14.891Z,-10.36
2018-03-01T01:53:34.081Z,-10.43
2018-03-01T01:56:03.176Z,-10.49
2018-03-01T02:01:09.751Z,-10.53
2018-03-01T02:03:39.046Z,-10.51
2018-03-01T02:06:10.842Z,-10.50
2018-03-01T02:08:40.509Z,-10.66
2018-03-01T02:11:10.570Z,-10.80
2018-03-01T02:13:40.675Z,-10.86
2018-03-01T02:16:09.845Z,-10.89
2018-03-01T02:18:39.845Z,-10.89
2018-03-01T02:21:10.677Z,-10.90
2018-03-01T02:23:40.824Z,-10.86
2018-03-01T02:26:11.542Z,-10.77
2018-03-01T02:28:40.591Z,-10.69
2018-03-01T02:31:10.148Z,-10.65
2018-03-01T02:33:39.717Z,-10.63
2018-03-01T02:36:08.950Z,-10.56
2018-03-01T02:38:39.766Z,-10.58
2018-03-01T02:41:10.856Z,-10.68
2018-03-01T02:43:42.998Z,-10.72
2018-03-01T02:46:12.338Z,-10.66
2018-03-01T02:48:41.604Z,-10.60
2018-03-01T02:51:20.451Z,-10.61
2018-03-01T02:53:51.172Z,-10.69
2018-03-01T02:56:21.046Z,-10.81
2018-03-01T02:58:53.006Z,-10.72
2018-03-01T03:01:24.251Z,-10.78
2018-03-01T03:03:54.422Z,-10.90
2018-03-01T03:06:24.514Z,-10.91
2018-03-01T03:08:53.930Z,-10.89
2018-03-01T03:11:23.164Z,-10.93
2018-03-01T03:13:52.471Z,-10.92
2018-03-01T03:16:21.810Z,-11.01
2018-03-01T03:18:52.754Z,-11.06
2018-03-01T03:21:22.745Z,-11.03
2018-03-01T03:23:53.779Z,-11.05
2018-03-01T03:26:23.680Z,-11.07
2018-03-01T03:28:53.704Z,-10.97
2018-03-01T03:31:23.662Z,-10.86
2018-03-01T03:33:52.763Z,-10.84
2018-03-01T03:36:22.754Z,-10.88
2018-03-01T03:38:53.397Z,-10.97
2018-03-01T03:41:23.101Z,-11.08
2018-03-01T03:43:52.200Z,-11.08
2018-03-01T03:46:22.169Z,-11.14
2018-03-01T03:48:53.076Z,-11.16
2018-03-01T03:51:24.157Z,-11.18
2018-03-01T03:53:54.225Z,-11.15
2018-03-01T03:56:23.384Z,-11.10
2018-03-01T04:01:27.011Z,-11.12
2018-03-01T04:03:56.968Z,-11.11
2018-03-01T04:06:26.157Z,-11.13
2018-03-01T04:08:56.546Z,-11.16
2018-03-01T04:14:01.940Z,-11.06
2018-03-01T04:16:32.891Z,-11.12
2018-03-01T04:19:03.057Z,-11.20
2018-03-01T04:21:32.365Z,-11.23
2018-03-01T04:24:02.477Z,-11.30
2018-03-01T04:26:31.825Z,-11.29
2018-03-01T04:29:01.925Z,-11.31
2018-03-01T04:31:31.135Z,-11.37
2018-03-01T04:34:00.497Z,-11.45
2018-03-01T04:36:31.382Z,-10.97
2018-03-01T04:39:03.016Z,-10.68
2018-03-01T04:41:32.212Z,-10.48
2018-03-01T04:44:02.356Z,-10.38
2018-03-01T04:46:34.096Z,-10.28
2018-03-01T04:49:03.022Z,-10.20
2018-03-01T04:51:32.219Z,-9.96
2018-03-01T04:54:02.441Z,-9.84
2018-03-01T04:56:33.112Z,-9.73
2018-03-01T04:59:04.244Z,-9.60
2018-03-01T05:01:34.092Z,-9.40
2018-03-01T05:04:03.329Z,-9.35
2018-03-01T05:06:34.469Z,-9.28
2018-03-01T05:09:03.690Z,-9.21
2018-03-01T05:11:34.470Z,-9.16
2018-03-01T05:14:04.506Z,-9.17
2018-03-01T05:16:34.467Z,-9.13
2018-03-01T05:19:03.861Z,-9.03
2018-03-01T05:24:11.367Z,-8.85
2018-03-01T05:26:40.608Z,-8.72
2018-03-01T05:29:10.585Z,-8.52
2018-03-01T05:31:40.641Z,-8.41
2018-03-01T05:34:09.930Z,-8.20
2018-03-01T05:36:40.392Z,-8.14
2018-03-01T05:39:12.366Z,-8.10
2018-03-01T05:41:44.393Z,-8.03
2018-03-01T05:44:13.686Z,-7.88
2018-03-01T05:46:42.894Z,-7.72
2018-03-01T05:49:14.715Z,-7.53
2018-03-01T05:51:48.601Z,-7.37
2018-03-01T05:54:19.036Z,-7.22
2018-03-01T05:56:48.726Z,-7.15
2018-03-01T05:59:18.849Z,-7.08
2018-03-01T06:01:50.276Z,-6.98
2018-03-01T06:04:19.417Z,-6.98
2018-03-01T06:06:49.215Z,-6.81
2018-03-01T06:09:19.452Z,-6.42
2018-03-01T06:11:49.397Z,-6.50
2018-03-01T06:14:19.078Z,-6.38
2018-03-01T06:16:53.824Z,-6.01
2018-03-01T06:19:24.885Z,-5.62
2018-03-01T06:24:29.525Z,-5.58
2018-03-01T06:26:58.749Z,-5.56
2018-03-01T06:29:28.151Z,-5.05
2018-03-01T06:31:57.385Z,-5.00
2018-03-01T06:34:27.184Z,-4.84
2018-03-01T06:36:56.306Z,-5.23
2018-03-01T06:39:26.973Z,-5.25
2018-03-01T06:41:56.190Z,-5.60
2018-03-01T06:44:28.586Z,-5.57
2018-03-01T06:46:58.610Z,-5.53
2018-03-01T06:49:31.259Z,-5.81
2018-03-01T06:52:02.919Z,-5.85
2018-03-01T06:54:33.255Z,-5.95
2018-03-01T06:57:02.455Z,-6.17
2018-03-01T06:59:31.579Z,-6.03
2018-03-01T07:02:00.855Z,-5.97
2018-03-01T07:04:30.004Z,-5.90
2018-03-01T07:06:59.184Z,-5.84
2018-03-01T07:09:30.062Z,-5.62
2018-03-01T07:11:59.929Z,-5.52
2018-03-01T07:14:30.246Z,-5.51
2018-03-01T07:16:59.926Z,-5.39
2018-03-01T07:19:29.584Z,-5.13
2018-03-01T07:22:00.481Z,-4.95
2018-03-01T07:24:29.875Z,-4.87
2018-03-01T07:27:00.675Z,-4.70
2018-03-01T07:29:30.966Z,-4.57
2018-03-01T07:32:01.057Z,-4.48
2018-03-01T07:34:30.500Z,-4.45
2018-03-01T07:36:59.721Z,-4.45
2018-03-01T07:39:28.752Z,-4.35
2018-03-01T07:41:58.752Z,-4.26
2018-03-01T07:44:28.130Z,-4.26
2018-03-01T07:46:57.270Z,-4.01
2018-03-01T07:49:29.914Z,-4.03
2018-03-01T07:51:59.368Z,-3.98
2018-03-01T07:54:29.326Z,-3.90
2018-03-01T07:56:58.428Z,-3.83
2018-03-01T07:59:28.876Z,-3.97
2018-03-01T08:02:01.089Z,-3.82
2018-03-01T08:04:31.199Z,-3.90
2018-03-01T08:09:37.011Z,-3.88
2018-03-01T08:12:07.701Z,-3.76
2018-03-01T08:14:38.333Z,-3.58
2018-03-01T08:17:07.581Z,-3.53
2018-03-01T08:19:36.584Z,-3.36
2018-03-01T08:22:08.204Z,-3.17
2018-03-01T08:24:37.503Z,-2.91
2018-03-01T08:27:07.330Z,-2.83
2018-03-01T08:29:39.468Z,-2.58
2018-03-01T08:32:09.029Z,-2.59
2018-03-01T08:34:39.213Z,-2.57
2018-03-01T08:37:11.316Z,-2.32
2018-03-01T08:39:41.105Z,-2.17
2018-03-01T08:42:10.309Z,-2.27
2018-03-01T08:44:39.580Z,-2.41
2018-03-01T08:47:08.775Z,-2.54
2018-03-01T08:49:39.020Z,-2.44
2018-03-01T08:52:14.222Z,-2.18
2018-03-01T08:54:45.205Z,-1.97
2018-03-01T08:57:16.135Z,-2.03
2018-03-01T08:59:45.665Z,-1.94
2018-03-01T09:02:15.584Z,-1.94
2018-03-01T09:04:46.384Z,-2.10
2018-03-01T09:07:16.025Z,-2.02
2018-03-01T09:09:44.933Z,-1.96
2018-03-01T09:12:16.274Z,-2.14
2018-03-01T09:14:46.270Z,-2.21
2018-03-01T09:17:16.480Z,-1.96
2018-03-01T09:19:47.295Z,-1.81
2018-03-01T09:22:16.440Z,-1.94
2018-03-01T09:24:46.257Z,-1.99
2018-03-01T09:27:15.580Z,-2.02
2018-03-01T09:29:44.809Z,-2.07
2018-03-01T09:32:15.659Z,-2.04
2018-03-01T09:34:46.718Z,-1.88
2018-03-01T09:37:15.628Z,-2.11
2018-03-01T09:39:44.908Z,-2.11
2018-03-01T09:42:14.063Z,-1.92
2018-03-01T09:44:43.328Z,-1.88
2018-03-01T09:47:12.214Z,-1.86
2018-03-01T09:49:42.398Z,-2.00
2018-03-01T09:52:12.494Z,-2.08
2018-03-01T09:54:44.273Z,-2.05
2018-03-01T09:57:13.636Z,-2.04
2018-03-01T09:59:42.915Z,-2.06
2018-03-01T10:02:12.134Z,-1.90
2018-03-01T10:04:41.955Z,-1.62
2018-03-01T10:07:11.319Z,-1.41
2018-03-01T10:09:40.743Z,-1.38
2018-03-01T10:12:10.160Z,-1.22
2018-03-01T10:14:39.439Z,-1.16
2018-03-01T10:17:09.370Z,-1.27
2018-03-01T10:19:38.928Z,-1.39
2018-03-01T10:22:10.640Z,-1.38
2018-03-01T10:24:40.700Z,-1.30
2018-03-01T10:27:10.689Z,-1.24
2018-03-01T10:29:45.290Z,-1.27
2018-03-01T10:32:14.524Z,-1.20
2018-03-01T10:34:44.485Z,-1.20
2018-03-01T10:37:14.493Z,-1.38
2018-03-01T10:39:44.493Z,-1.38
2018-03-01T10:42:13.848Z,-1.19
2018-03-01T10:44:43.709Z,-1.17
2018-03-01T10:47:13.829Z,-1.11
2018-03-01T10:49:43.980Z,-1.19
2018-03-01T10:52:16.406Z,-1.09
2018-03-01T10:54:52.324Z,-1.17
2018-03-01T10:59:56.658Z,-1.13
2018-03-01T11:02:27.393Z,-1.29
2018-03-01T11:04:58.245Z,-1.19
2018-03-01T11:07:27.335Z,-1.17
2018-03-01T11:10:00.989Z,-1.37
2018-03-01T11:12:31.239Z,-1.27
2018-03-01T11:15:07.550Z,-1.19
2018-03-01T11:17:37.529Z,-1.06
2018-03-01T11:20:09.013Z,-0.97
2018-03-01T11:22:38.140Z,-0.87
2018-03-01T11:25:08.218Z,-0.78
2018-03-01T11:27:38.890Z,-0.67
2018-03-01T11:30:09.014Z,-0.67
2018-03-01T11:32:38.570Z,-0.74
2018-03-01T11:35:07.818Z,-0.71
2018-03-01T11:37:39.570Z,-0.83
2018-03-01T11:40:09.600Z,-1.00
2018-03-01T11:42:39.838Z,-0.96
2018-03-01T11:45:09.675Z,-0.86
2018-03-01T11:47:39.385Z,-0.88
2018-03-01T11:50:08.578Z,-0.89
2018-03-01T11:52:42.864Z,-0.90
2018-03-01T11:55:13.815Z,-0.76
2018-03-01T11:57:42.913Z,-0.88
2018-03-01T12:00:13.079Z,-1.12
2018-03-01T12:02:42.250Z,-1.09
2018-03-01T12:08:12.432Z,-1.04
2018-03-01T12:10:42.102Z,-1.19
2018-03-01T12:13:11.202Z,-1.24
2018-03-01T12:15:43.164Z,-1.09
2018-03-01T12:18:12.014Z,-1.05
2018-03-01T12:20:41.388Z,-1.06
2018-03-01T12:23:12.132Z,-1.29
2018-03-01T12:25:41.263Z,-1.29
2018-03-01T12:28:11.208Z,-1.11
2018-03-01T12:30:42.016Z,-1.16
2018-03-01T12:33:12.069Z,-0.99
2018-03-01T12:35:41.175Z,-1.00
2018-03-01T12:38:10.379Z,-1.07
2018-03-01T12:40:40.437Z,-1.38
2018-03-01T12:43:09.442Z,-1.24
2018-03-01T12:45:38.699Z,-1.30
2018-03-01T12:48:07.835Z,-1.06
2018-03-01T12:50:37.930Z,-0.94
2018-03-01T12:53:09.146Z,-1.14
2018-03-01T12:55:39.105Z,-1.04
2018-03-01T12:58:12.753Z,-0.84
2018-03-01T13:03:10.442Z,-0.67
2018-03-01T13:05:43.348Z,-0.74
2018-03-01T13:08:12.561Z,-1.00
2018-03-01T13:10:42.191Z,-0.99
2018-03-01T13:13:11.385Z,-0.83
2018-03-01T13:15:41.500Z,-0.90
2018-03-01T13:18:13.944Z,-0.95
2018-03-01T13:20:43.276Z,-0.87
2018-03-01T13:23:12.398Z,-1.06
2018-03-01T13:25:43.042Z,-0.95
2018-03-01T13:28:12.006Z,-0.87
2018-03-01T13:30:44.278Z,-0.80
2018-03-01T13:33:33.238Z,-0.88
2018-03-01T13:36:03.223Z,-0.95
2018-03-01T13:38:33.083Z,-0.80
2018-03-01T13:41:03.021Z,-0.65
2018-03-01T13:46:51.662Z,-0.68
2018-03-01T13:49:21.814Z,-0.68
2018-03-01T13:51:50.913Z,-0.59
2018-03-01T13:54:20.242Z,-0.68
2018-03-01T13:56:49.417Z,-0.63
2018-03-01T13:59:19.399Z,-0.64
2018-03-01T14:01:49.171Z,-0.60
2018-03-01T14:04:19.416Z,-0.56
2018-03-01T14:09:51.678Z,-0.43
2018-03-01T14:12:36.282Z,-0.34
2018-03-01T14:15:06.459Z,-0.37
2018-03-01T14:17:50.443Z,-0.35
2018-03-01T14:20:37.201Z,-0.32
2018-03-01T14:26:08.862Z,-0.46
2018-03-01T14:28:43.782Z,-0.38
2018-03-01T14:31:15.426Z,-0.39
2018-03-01T14:33:45.742Z,-0.60
2018-03-01T14:36:15.801Z,-0.59
2018-03-01T14:38:45.168Z,-0.55
2018-03-01T14:41:14.278Z,-0.53
2018-03-01T14:46:20.272Z,-0.67
2018-03-01T14:48:49.487Z,-0.65
2018-03-01T14:51:18.778Z,-0.63
2018-03-01T14:53:49.612Z,-0.69
2018-03-01T14:56:20.179Z,-0.74
2018-03-01T14:58:50.022Z,-0.72
2018-03-01T15:01:19.573Z,-0.84
2018-03-01T15:03:48.661Z,-0.88
2018-03-01T15:06:17.862Z,-0.80
2018-03-01T15:08:48.289Z,-0.86
2018-03-01T15:11:22.982Z,-0.92
2018-03-01T15:13:53.043Z,-1.02
2018-03-01T15:16:23.218Z,-1.02
2018-03-01T15:18:53.293Z,-0.99
2018-03-01T15:21:22.542Z,-1.10
2018-03-01T15:23:51.733Z,-1.21
2018-03-01T15:26:21.987Z,-1.26
2018-03-01T15:28:51.049Z,-1.31
2018-03-01T15:31:20.115Z,-1.38
2018-03-01T15:36:25.686Z,-1.43
2018-03-01T15:38:57.318Z,-1.48
2018-03-01T15:41:27.628Z,-1.54
2018-03-01T15:43:57.883Z,-1.53
2018-03-01T15:46:27.808Z,-1.59
2018-03-01T15:51:31.943Z,-1.61
2018-03-01T15:54:01.248Z,-1.72
2018-03-01T15:56:32.422Z,-1.74
2018-03-01T15:59:02.368Z,-1.72
2018-03-01T16:01:33.018Z,-1.81
2018-03-01T16:04:03.794Z,-1.85
2018-03-01T16:06:33.067Z,-1.91
2018-03-01T16:09:02.378Z,-1.92
2018-03-01T16:11:32.697Z,-1.93
2018-03-01T16:14:01.964Z,-1.91
2018-03-01T16:16:30.952Z,-1.93
2018-03-01T16:19:02.643Z,-1.96
2018-03-01T16:21:32.727Z,-1.97
2018-03-01T16:24:01.719Z,-1.97
2018-03-01T16:26:31.772Z,-1.99
2018-03-01T16:29:02.424Z,-2.01
2018-03-01T16:31:31.435Z,-1.89
2018-03-01T16:34:01.557Z,-1.90
2018-03-01T16:36:30.786Z,-1.94
2018-03-01T16:38:59.884Z,-1.93
2018-03-01T16:44:03.750Z,-1.90
2018-03-01T16:46:34.849Z,-1.91
2018-03-01T16:49:09.953Z,-1.93
2018-03-01T16:51:39.088Z,-1.89
2018-03-01T16:54:09.173Z,-1.91
2018-03-01T16:56:40.846Z,-1.89
2018-03-01T16:59:10.061Z,-1.81
2018-03-01T17:01:39.923Z,-1.83
2018-03-01T17:04:10.350Z,-1.81
2018-03-01T17:06:40.625Z,-1.79
2018-03-01T17:09:09.938Z,-1.81
2018-03-01T17:11:39.033Z,-1.80
2018-03-01T17:14:09.797Z,-1.68
2018-03-01T17:16:39.108Z,-1.79
2018-03-01T17:19:08.303Z,-1.73
2018-03-01T17:21:38.286Z,-1.73
2018-03-01T17:24:08.434Z,-1.64
2018-03-01T17:26:38.478Z,-1.63
2018-03-01T17:29:10.033Z,-1.58
2018-03-01T17:31:41.644Z,-1.60
2018-03-01T17:34:11.755Z,-1.60
2018-03-01T17:36:41.487Z,-1.58
2018-03-01T17:41:45.952Z,-1.43
2018-03-01T17:44:18.038Z,-1.38
2018-03-01T17:49:29.203Z,-1.41
2018-03-01T17:52:01.313Z,-1.41
2018-03-01T17:54:30.537Z,-1.40
2018-03-01T17:56:59.568Z,-1.33
2018-03-01T17:59:28.868Z,-1.33
2018-03-01T18:01:58.229Z,-1.35
2018-03-01T18:04:28.862Z,-1.36
2018-03-01T18:06:59.659Z,-1.32
2018-03-01T18:09:30.556Z,-1.29
2018-03-01T18:12:00.651Z,-1.23
2018-03-01T18:14:30.091Z,-1.18
2018-03-01T18:16:59.387Z,-1.25
2018-03-01T18:22:05.298Z,-1.21
2018-03-01T18:24:35.283Z,-1.12
2018-03-01T18:27:06.450Z,-1.13
2018-03-01T18:29:35.542Z,-1.12
2018-03-01T18:32:05.397Z,-1.05
2018-03-01T18:34:34.775Z,-1.04
2018-03-01T18:37:04.153Z,-1.02
2018-03-01T18:39:33.263Z,-0.99
2018-03-01T18:42:05.064Z,-0.92
2018-03-01T18:44:34.705Z,-0.91
2018-03-01T18:47:04.767Z,-0.86
2018-03-01T18:49:36.982Z,-0.81
2018-03-01T18:52:06.164Z,-0.78
2018-03-01T18:54:36.423Z,-0.78
2018-03-01T18:57:06.845Z,-0.68
2018-03-01T18:59:36.452Z,-0.63
2018-03-01T19:02:06.545Z,-0.61
2018-03-01T19:04:37.365Z,-0.61
2018-03-01T19:07:07.536Z,-0.60
2018-03-01T19:09:37.411Z,-0.51
2018-03-01T19:12:09.324Z,-0.44
2018-03-01T19:14:38.467Z,-0.47
2018-03-01T19:17:09.145Z,-0.51
2018-03-01T19:22:13.995Z,-0.46
2018-03-01T19:24:44.235Z,-0.33
2018-03-01T19:27:17.737Z,-0.32
2018-03-01T19:29:46.872Z,-0.28
2018-03-01T19:32:16.807Z,-0.31
2018-03-01T19:34:46.865Z,-0.23
2018-03-01T19:37:16.766Z,-0.30
2018-03-01T19:39:49.464Z,-0.30
2018-03-01T19:42:18.552Z,-0.34
2018-03-01T19:44:47.732Z,-0.29
2018-03-01T19:47:18.536Z,-0.32
2018-03-01T19:49:49.288Z,-0.37
2018-03-01T19:52:18.670Z,-0.38
2018-03-01T19:54:47.870Z,-0.34
2018-03-01T19:57:19.647Z,-0.31
2018-03-01T19:59:48.775Z,-0.28
2018-03-01T20:02:17.979Z,-0.25
2018-03-01T20:04:47.031Z,-0.11
2018-03-01T20:07:16.465Z,-0.07
2018-03-01T20:09:45.759Z,-0.10
2018-03-01T20:12:14.973Z,-0.11
2018-03-01T20:14:45.142Z,-0.05
2018-03-01T20:17:14.741Z,0.01
2018-03-01T20:19:46.767Z,0.04
2018-03-01T20:22:17.384Z,0.03
2018-03-01T20:24:46.707Z,0.10
2018-03-01T20:29:51.057Z,0.19
2018-03-01T20:32:21.031Z,0.32
2018-03-01T20:34:50.241Z,0.26
2018-03-01T20:37:19.547Z,0.35
2018-03-01T20:39:49.109Z,0.40
2018-03-01T20:42:18.637Z,0.38
2018-03-01T20:44:48.222Z,0.41
2018-03-01T20:47:17.305Z,0.37
2018-03-01T20:52:21.274Z,0.33
2018-03-01T20:54:52.949Z,0.41
2018-03-01T20:57:23.015Z,0.39
2018-03-01T20:59:52.914Z,0.37
2018-03-01T21:02:22.035Z,0.38
2018-03-01T21:04:52.935Z,0.47
2018-03-01T21:07:22.070Z,0.56
2018-03-01T21:09:51.690Z,0.57
2018-03-01T21:12:21.510Z,0.71
2018-03-01T21:14:50.687Z,0.73
2018-03-01T21:17:19.940Z,0.75
2018-03-01T21:19:49.892Z,0.69
2018-03-01T21:22:19.951Z,0.72
2018-03-01T21:24:49.229Z,0.76
2018-03-01T21:27:18.978Z,0.74
2018-03-01T21:29:48.043Z,0.79
2018-03-01T21:32:18.310Z,0.70
2018-03-01T21:34:50.156Z,0.69
2018-03-01T21:37:19.323Z,0.74
2018-03-01T21:39:48.443Z,0.80
2018-03-01T21:42:17.772Z,0.94
2018-03-01T21:44:48.548Z,1.00
2018-03-01T21:47:17.748Z,1.01
2018-03-01T21:49:48.620Z,1.04
2018-03-01T21:52:18.681Z,0.94
2018-03-01T21:54:48.630Z,1.01
2018-03-01T21:57:20.385Z,1.01
2018-03-01T21:59:56.035Z,0.97
2018-03-01T22:02:28.021Z,0.94
2018-03-01T22:04:57.457Z,0.99
2018-03-01T22:07:27.255Z,1.03
2018-03-01T22:09:57.100Z,1.03
2018-03-01T22:12:26.338Z,1.09
2018-03-01T22:14:55.459Z,1.14
2018-03-01T22:17:25.371Z,1.16
2018-03-01T22:19:55.201Z,1.12
2018-03-01T22:22:24.172Z,1.08
2018-03-01T22:24:53.372Z,1.13
2018-03-01T22:27:22.482Z,1.17
2018-03-01T22:29:51.607Z,1.21
2018-03-01T22:32:21.031Z,1.16
2018-03-01T22:34:50.283Z,1.26
2018-03-01T22:37:19.388Z,1.29
2018-03-01T22:39:50.292Z,1.30
2018-03-01T22:42:19.300Z,1.33
2018-03-01T22:44:48.501Z,1.25
2018-03-01T22:47:18.450Z,1.30
2018-03-01T22:49:48.220Z,1.28
2018-03-01T22:52:17.287Z,1.29
2018-03-01T22:54:47.258Z,1.29
2018-03-01T22:57:18.879Z,1.33
2018-03-01T22:59:49.762Z,1.35
2018-03-01T23:02:18.892Z,1.30
2018-03-01T23:04:48.097Z,1.21
2018-03-01T23:07:17.205Z,1.18
2018-03-01T23:09:46.541Z,1.25
2018-03-01T23:12:15.628Z,1.20
2018-03-01T23:14:45.634Z,1.19
2018-03-01T23:17:15.776Z,1.24
2018-03-01T23:19:44.772Z,1.20
2018-03-01T23:22:14.670Z,1.20
2018-03-01T23:24:44.662Z,1.31
2018-03-01T23:27:13.781Z,1.33
2018-03-01T23:29:42.884Z,1.25
2018-03-01T23:32:11.840Z,1.28
2018-03-01T23:34:41.036Z,1.31
2018-03-01T23:37:10.202Z,1.32
2018-03-01T23:39:39.347Z,1.31
2018-03-01T23:42:08.434Z,1.30
2018-03-01T23:44:41.611Z,1.25
2018-03-01T23:47:10.790Z,1.30
2018-03-01T23:49:40.034Z,1.47
2018-03-01T23:52:09.316Z,1.47
2018-03-01T23:54:39.645Z,1.48
2018-03-01T23:57:08.670Z,1.41
2018-03-01T23:59:38.997Z,1.41
